createdAt,value
2023-03-08T00:02:26.293Z,65.99
2023-03-08T00:05:50.978Z,66.00
2023-03-08T00:09:21.294Z,65.98
2023-03-08T00:12:42.495Z,66.04
2023-03-08T00:16:04.414Z,66.19
2023-03-08T00:19:39.357Z,66.10
2023-03-08T00:23:09.057Z,66.14
2023-03-08T00:26:36.830Z,66.27
2023-03-08T00:29:44.364Z,66.46
2023-03-08T00:32:54.081Z,66.46
2023-03-08T00:36:04.293Z,66.48
2023-03-08T00:39:17.797Z,66.44
2023-03-08T00:42:47.265Z,66.45
2023-03-08T00:46:13.546Z,66.39
2023-03-08T00:49:09.125Z,66.60
2023-03-08T00:52:04.115Z,66.61
2023-03-08T00:55:27.833Z,66.54
2023-03-08T00:58:31.429Z,66.61
2023-03-08T01:01:24.010Z,66.57
2023-03-08T01:04:25.999Z,66.61
2023-03-08T01:07:33.244Z,66.65
2023-03-08T01:10:51.976Z,66.55
2023-03-08T01:13:48.260Z,66.67
2023-03-08T01:16:45.304Z,66.70
2023-03-08T01:20:01.313Z,66.90
2023-03-08T01:23:20.967Z,66.72
2023-03-08T01:26:45.876Z,66.92
2023-03-08T01:30:08.846Z,66.85
2023-03-08T01:33:35.657Z,66.89
2023-03-08T01:37:03.856Z,66.79
2023-03-08T01:40:27.337Z,66.70
2023-03-08T01:43:54.241Z,66.91
2023-03-08T01:47:29.080Z,66.81
2023-03-08T01:51:02.636Z,66.99
2023-03-08T01:54:30.099Z,66.86
2023-03-08T01:57:55.783Z,66.63
2023-03-08T02:01:24.943Z,66.61
2023-03-08T02:04:33.853Z,66.61
2023-03-08T02:07:48.275Z,66.57
2023-03-08T02:11:03.863Z,66.54
2023-03-08T02:14:35.264Z,66.59
2023-03-08T02:17:39.427Z,66.57
2023-03-08T02:21:12.157Z,66.56
2023-03-08T02:24:30.158Z,66.61
2023-03-08T02:27:34.098Z,66.59
2023-03-08T02:30:52.240Z,66.64
2023-03-08T02:34:18.246Z,66.69
2023-03-08T02:37:27.186Z,66.74
2023-03-08T02:41:04.208Z,66.57
2023-03-08T02:44:25.191Z,66.49
2023-03-08T02:47:50.229Z,66.74
2023-03-08T02:51:16.208Z,66.65
2023-03-08T02:54:39.139Z,66.70
2023-03-08T02:57:38.217Z,66.70
2023-03-08T03:00:49.758Z,66.62
2023-03-08T03:04:11.818Z,66.52
2023-03-08T03:07:21.226Z,66.64
2023-03-08T03:10:43.255Z,66.79
2023-03-08T03:13:52.141Z,66.64
2023-03-08T03:17:29.116Z,66.74
2023-03-08T03:20:46.155Z,66.58
2023-03-08T03:23:55.545Z,66.65
2023-03-08T03:27:01.219Z,66.41
2023-03-08T03:30:08.551Z,66.50
2023-03-08T03:33:29.181Z,66.38
2023-03-08T03:36:51.109Z,66.52
2023-03-08T03:40:32.162Z,66.53
2023-03-08T03:43:50.136Z,66.44
2023-03-08T03:47:05.100Z,66.32
2023-03-08T03:50:42.169Z,66.32
2023-03-08T03:53:49.057Z,66.29
2023-03-08T03:57:39.057Z,66.18
2023-03-08T04:00:49.399Z,66.51
2023-03-08T04:04:14.200Z,66.45
2023-03-08T04:07:40.180Z,66.30
2023-03-08T04:11:03.050Z,66.36
2023-03-08T04:14:21.188Z,66.28
2023-03-08T04:17:54.099Z,66.36
2023-03-08T04:21:21.214Z,66.27
2023-03-08T04:24:44.148Z,66.23
2023-03-08T04:28:09.799Z,66.36
2023-03-08T04:31:41.138Z,66.24
2023-03-08T04:34:54.056Z,66.05
2023-03-08T04:38:15.544Z,66.22
2023-03-08T04:41:25.175Z,66.01
2023-03-08T04:44:37.113Z,66.03
2023-03-08T04:48:12.027Z,65.72
2023-03-08T04:51:08.073Z,65.94
2023-03-08T04:54:22.125Z,65.81
2023-03-08T04:57:46.125Z,65.73
2023-03-08T05:01:16.071Z,65.94
2023-03-08T05:04:31.226Z,65.88
2023-03-08T05:07:41.066Z,65.82
2023-03-08T05:11:09.021Z,65.75
2023-03-08T05:14:21.118Z,65.72
2023-03-08T05:17:40.045Z,65.66
2023-03-08T05:21:08.098Z,65.64
2023-03-08T05:24:35.225Z,65.57
2023-03-08T05:28:12.183Z,65.49
2023-03-08T05:31:39.275Z,65.57
2023-03-08T05:35:07.139Z,65.54
2023-03-08T05:38:40.169Z,65.40
2023-03-08T05:42:11.972Z,65.47
2023-03-08T05:45:18.659Z,65.53
2023-03-08T05:48:40.097Z,65.47
2023-03-08T05:52:04.803Z,65.59
2023-03-08T05:55:42.063Z,65.50
2023-03-08T05:58:48.551Z,65.48
2023-03-08T06:02:09.854Z,65.52
2023-03-08T06:05:20.865Z,65.49
2023-03-08T06:08:22.813Z,65.49
2023-03-08T06:11:34.552Z,65.50
2023-03-08T06:14:38.010Z,65.49
2023-03-08T06:18:05.306Z,65.45
2023-03-08T06:21:48.888Z,65.44
2023-03-08T06:24:50.029Z,65.53
2023-03-08T06:28:11.037Z,65.39
2023-03-08T06:31:26.012Z,65.51
2023-03-08T06:34:48.182Z,65.45
2023-03-08T06:37:50.361Z,65.53
2023-03-08T06:40:54.831Z,65.34
2023-03-08T06:43:49.663Z,65.35
2023-03-08T06:46:40.124Z,65.46
2023-03-08T06:50:15.568Z,65.37
2023-03-08T06:53:30.525Z,65.52
2023-03-08T06:56:50.707Z,65.47
2023-03-08T06:59:50.029Z,65.39
2023-03-08T07:03:06.629Z,65.39
2023-03-08T07:06:13.019Z,65.46
2023-03-08T07:09:06.520Z,65.49
2023-03-08T07:12:21.942Z,65.67
2023-03-08T07:15:58.966Z,65.39
2023-03-08T07:19:20.998Z,65.51
2023-03-08T07:23:03.928Z,65.53
2023-03-08T07:25:54.854Z,65.31
2023-03-08T07:29:02.747Z,65.28
2023-03-08T07:31:41.737Z,65.26
2023-03-08T07:34:47.000Z,65.16
2023-03-08T07:37:52.836Z,65.16
2023-03-08T07:40:58.158Z,65.23
2023-03-08T07:43:50.030Z,65.11
2023-03-08T07:46:49.241Z,65.03
2023-03-08T07:49:31.671Z,65.16
2023-03-08T07:52:09.809Z,65.05
2023-03-08T07:55:01.856Z,65.09
2023-03-08T07:58:25.560Z,65.02
2023-03-08T08:01:40.516Z,64.91
2023-03-08T08:04:47.084Z,64.90
2023-03-08T08:08:05.137Z,65.01
2023-03-08T08:11:00.504Z,64.95
2023-03-08T08:13:57.603Z,64.88
2023-03-08T08:17:04.133Z,64.72
2023-03-08T08:20:22.064Z,64.81
2023-03-08T08:23:47.819Z,64.77
2023-03-08T08:27:16.876Z,64.77
2023-03-08T08:30:42.938Z,64.70
2023-03-08T08:34:12.910Z,64.69
2023-03-08T08:37:31.713Z,64.62
2023-03-08T08:40:37.449Z,64.67
2023-03-08T08:43:29.424Z,64.45
2023-03-08T08:46:20.370Z,64.48
2023-03-08T08:55:45.694Z,64.33
2023-03-08T08:59:09.989Z,64.25
2023-03-08T09:08:24.762Z,64.26
2023-03-08T09:11:24.410Z,64.02
2023-03-08T09:14:19.949Z,64.05
2023-03-08T09:17:22.068Z,64.14
2023-03-08T09:19:58.482Z,64.24
2023-03-08T09:23:31.883Z,64.06
2023-03-08T09:26:32.336Z,63.85
2023-03-08T09:30:13.338Z,63.76
2023-03-08T09:32:56.874Z,64.03
2023-03-08T09:36:24.127Z,63.83
2023-03-08T09:39:14.225Z,63.63
2023-03-08T09:42:40.495Z,63.41
2023-03-08T09:46:01.410Z,63.52
2023-03-08T09:49:11.328Z,63.32
2023-03-08T09:52:51.646Z,63.38
2023-03-08T09:55:31.267Z,63.23
2023-03-08T09:58:53.575Z,63.21
2023-03-08T10:01:38.819Z,63.30
2023-03-08T10:04:19.559Z,63.12
2023-03-08T10:07:19.314Z,63.12
2023-03-08T10:10:56.290Z,63.22
2023-03-08T10:13:54.862Z,63.14
2023-03-08T10:16:49.003Z,63.23
2023-03-08T10:19:38.214Z,63.26
2023-03-08T10:22:30.785Z,63.21
2023-03-08T10:25:18.840Z,62.94
2023-03-08T10:28:03.875Z,63.07
2023-03-08T10:30:55.332Z,62.93
2023-03-08T10:33:45.937Z,62.92
2023-03-08T10:36:32.482Z,62.84
2023-03-08T10:39:14.170Z,62.62
2023-03-08T10:42:21.940Z,62.61
2023-03-08T10:45:16.637Z,62.67
2023-03-08T10:48:01.709Z,62.58
2023-03-08T10:51:29.139Z,62.70
2023-03-08T10:54:41.791Z,62.57
2023-03-08T10:58:26.468Z,62.54
2023-03-08T11:01:41.432Z,62.57
2023-03-08T11:05:07.590Z,62.46
2023-03-08T11:08:04.316Z,62.28
2023-03-08T11:11:22.733Z,62.35
2023-03-08T11:14:40.157Z,62.33
2023-03-08T11:18:06.457Z,62.29
2023-03-08T11:21:24.337Z,62.23
2023-03-08T11:29:34.962Z,62.16
2023-03-08T11:33:01.411Z,61.70
2023-03-08T11:36:19.311Z,61.49
2023-03-08T11:39:31.107Z,61.61
2023-03-08T11:42:44.254Z,61.65
2023-03-08T11:46:12.196Z,61.63
2023-03-08T11:49:34.275Z,61.64
2023-03-08T11:53:29.297Z,61.60
2023-03-08T11:56:44.734Z,61.66
2023-03-08T12:00:01.413Z,61.49
2023-03-08T12:03:02.072Z,61.51
2023-03-08T12:06:26.569Z,61.52
2023-03-08T12:09:20.198Z,61.45
2023-03-08T12:12:57.210Z,61.51
2023-03-08T12:16:49.564Z,61.42
2023-03-08T12:19:44.592Z,61.51
2023-03-08T12:22:41.886Z,61.47
2023-03-08T12:25:18.710Z,61.35
2023-03-08T12:28:17.952Z,61.58
2023-03-08T12:31:28.209Z,61.51
2023-03-08T12:34:04.330Z,61.27
2023-03-08T12:36:45.600Z,61.04
2023-03-08T12:39:32.677Z,60.97
2023-03-08T12:42:11.899Z,61.10
2023-03-08T12:44:43.462Z,61.21
2023-03-08T12:47:15.702Z,61.12
2023-03-08T12:49:51.893Z,61.10
2023-03-08T12:52:22.747Z,60.82
2023-03-08T12:55:03.150Z,60.70
2023-03-08T12:58:09.381Z,60.84
2023-03-08T13:00:44.707Z,60.82
2023-03-08T13:03:19.058Z,60.81
2023-03-08T13:05:50.855Z,60.82
2023-03-08T13:08:45.198Z,60.71
2023-03-08T13:11:18.712Z,60.77
2023-03-08T13:14:26.959Z,60.74
2023-03-08T13:17:04.563Z,60.92
2023-03-08T13:19:38.722Z,60.99
2023-03-08T13:22:38.848Z,60.82
2023-03-08T13:28:46.690Z,60.64
2023-03-08T13:32:24.386Z,60.56
2023-03-08T13:36:05.028Z,60.46
2023-03-08T13:39:39.418Z,60.34
2023-03-08T13:42:55.771Z,60.34
2023-03-08T13:46:15.151Z,60.49
2023-03-08T13:49:37.649Z,60.59
2023-03-08T13:52:36.065Z,60.64
2023-03-08T13:55:49.522Z,60.59
2023-03-08T13:58:57.044Z,60.35
2023-03-08T14:02:37.072Z,60.44
2023-03-08T14:09:30.821Z,60.43
2023-03-08T14:12:29.413Z,60.18
2023-03-08T14:15:48.488Z,60.27
2023-03-08T14:18:41.428Z,60.10
2023-03-08T14:21:28.938Z,59.90
2023-03-08T14:24:47.674Z,59.93
2023-03-08T14:27:38.638Z,60.02
2023-03-08T14:30:37.819Z,60.00
2023-03-08T14:34:03.399Z,60.07
2023-03-08T14:37:31.910Z,59.89
2023-03-08T14:40:36.888Z,59.89
2023-03-08T14:43:38.045Z,59.92
2023-03-08T14:47:02.822Z,59.60
2023-03-08T14:50:34.896Z,59.65
2023-03-08T14:53:55.799Z,59.54
2023-03-08T14:57:22.877Z,59.63
2023-03-08T15:00:43.935Z,59.62
2023-03-08T15:03:14.980Z,59.67
2023-03-08T15:06:09.944Z,59.55
2023-03-08T15:08:55.955Z,59.61
2023-03-08T15:12:02.094Z,59.57
2023-03-08T15:14:44.336Z,59.66
2023-03-08T15:17:23.127Z,59.63
2023-03-08T15:20:01.802Z,59.54
2023-03-08T15:23:06.292Z,59.48
2023-03-08T15:25:45.948Z,59.39
2023-03-08T15:28:36.405Z,59.57
2023-03-08T15:31:09.532Z,59.58
2023-03-08T15:33:40.660Z,59.57
2023-03-08T15:36:16.388Z,59.64
2023-03-08T15:38:50.031Z,59.62
2023-03-08T15:41:25.059Z,59.53
2023-03-08T15:44:03.899Z,59.49
2023-03-08T15:46:35.287Z,59.72
2023-03-08T15:49:06.412Z,59.67
2023-03-08T15:52:14.947Z,59.60
2023-03-08T15:54:51.534Z,59.71
2023-03-08T15:57:22.604Z,59.64
2023-03-08T15:59:53.876Z,59.54
2023-03-08T16:02:24.873Z,59.48
2023-03-08T16:04:58.490Z,59.56
2023-03-08T16:07:30.076Z,59.67
2023-03-08T16:10:01.384Z,59.68
2023-03-08T16:12:32.328Z,59.86
2023-03-08T16:15:03.663Z,59.91
2023-03-08T16:17:35.200Z,59.88
2023-03-08T16:20:09.042Z,60.12
2023-03-08T16:22:42.795Z,60.30
2023-03-08T16:25:18.925Z,60.53
2023-03-08T16:27:53.714Z,61.18
2023-03-08T16:43:00.612Z,60.37
2023-03-08T17:13:46.012Z,60.01
2023-03-08T17:17:30.651Z,60.03
2023-03-08T17:20:14.237Z,60.02
2023-03-08T17:22:48.381Z,60.03
2023-03-08T17:25:19.555Z,60.05
2023-03-08T17:27:52.681Z,59.94
2023-03-08T17:30:26.375Z,59.98
2023-03-08T17:32:58.335Z,59.92
2023-03-08T17:35:32.264Z,60.01
2023-03-08T17:38:03.382Z,59.97
2023-03-08T17:40:52.699Z,60.03
2023-03-08T17:52:16.009Z,59.88
2023-03-08T17:55:05.603Z,60.03
2023-03-08T18:39:18.740Z,60.08
2023-03-08T18:42:01.573Z,60.16
2023-03-08T18:44:42.919Z,60.19
2023-03-08T18:47:31.097Z,60.23
2023-03-08T18:50:09.122Z,60.22
2023-03-08T18:58:08.737Z,61.40
2023-03-08T19:00:57.480Z,62.04
